Time;durP1;ratioP1;P1;durP2;ratioP2;P2;SDS_P1;SDS_P2;PMS_P1;PMS_P2;Temp;Humidity;BMP_temperature;BMP_pressure;BME280_temperature;BME280_humidity;BME280_pressure;Samples;Min_cycle;Max_cycle;Signal;HPM_P1;HPM_P2
2021/03/03 00:02:19;;;;;;;10.53;6.15;;;;;;;8.93;48.06;101277.30;1821727;78;21556;-80
2021/03/03 00:04:47;;;;;;;10.72;5.20;;;;;;;8.92;48.14;101280.46;1821240;78;21070;-77
2021/03/03 00:07:15;;;;;;;9.45;5.95;;;;;;;8.95;48.18;101282.89;1763663;81;21063;-80
2021/03/03 00:09:42;;;;;;;8.80;5.42;;;;;;;8.97;48.13;101290.27;1821597;78;21124;-80
2021/03/03 00:12:10;;;;;;;10.68;6.40;;;;;;;8.97;48.17;101286.27;1734190;81;21132;-80
2021/03/03 00:14:37;;;;;;;9.53;5.62;;;;;;;9.01;48.19;101297.06;1821772;78;21504;-78
2021/03/03 00:17:05;;;;;;;8.45;5.17;;;;;;;9.04;48.14;101295.48;1763682;81;21092;-76
2021/03/03 00:19:33;;;;;;;9.88;6.08;;;;;;;9.07;48.10;101299.22;1821693;78;21488;-77
2021/03/03 00:22:01;;;;;;;8.95;5.35;;;;;;;9.07;48.06;101299.22;1763633;81;21121;-78
2021/03/03 00:24:28;;;;;;;8.90;5.80;;;;;;;9.04;48.09;101302.66;1821772;78;21184;-80
2021/03/03 00:26:56;;;;;;;8.30;5.12;;;;;;;9.03;48.18;101299.11;1763613;81;21197;-76
2021/03/03 00:29:23;;;;;;;9.53;5.60;;;;;;;9.07;48.16;101296.55;1821750;78;21050;-75
2021/03/03 00:31:51;;;;;;;8.08;4.90;;;;;;;9.07;48.16;101300.55;1763441;81;21119;-77
2021/03/03 00:34:18;;;;;;;8.23;4.70;;;;;;;9.07;48.15;101303.22;1819024;78;21160;-78
2021/03/03 00:36:46;;;;;;;10.90;5.28;;;;;;;9.08;48.14;101310.75;1765809;81;21088;-76
2021/03/03 00:39:14;;;;;;;8.95;4.50;;;;;;;9.05;48.18;101304.34;1824905;78;21054;-74
2021/03/03 00:41:41;;;;;;;8.80;4.95;;;;;;;9.03;48.20;101309.80;1766709;81;21126;-76
2021/03/03 00:44:09;;;;;;;7.10;4.40;;;;;;;9.03;48.26;101306.28;1825229;78;21152;-76
2021/03/03 00:46:37;;;;;;;7.70;4.67;;;;;;;9.05;48.29;101312.36;1767079;81;21040;-76
2021/03/03 00:49:05;;;;;;;9.20;5.25;;;;;;;9.05;48.26;101309.20;1825383;78;21053;-75
2021/03/03 00:51:33;;;;;;;9.08;5.40;;;;;;;9.08;48.20;101315.64;1766891;81;21115;-76
2021/03/03 00:54:00;;;;;;;8.83;5.17;;;;;;;9.11;48.11;101307.83;1825404;78;21085;-76
2021/03/03 00:56:33;;;;;;;8.70;4.70;;;;;;;9.09;48.15;101324.01;1767188;81;21035;-76
2021/03/03 00:59:02;;;;;;;8.38;4.60;;;;;;;9.08;48.14;101318.31;1824547;78;21105;-74
2021/03/03 01:01:31;;;;;;;8.80;4.72;;;;;;;9.09;48.09;101314.66;1766341;81;21579;-77
2021/03/03 01:03:59;;;;;;;7.28;4.80;;;;;;;9.10;48.11;101315.00;1798367;79;21152;-75
2021/03/03 01:06:28;;;;;;;8.15;4.75;;;;;;;9.11;48.09;101315.85;1822572;78;21141;-77
2021/03/03 01:08:55;;;;;;;8.83;4.87;;;;;;;9.11;47.99;101316.70;1765032;80;21149;-76
2021/03/03 01:11:23;;;;;;;8.38;5.37;;;;;;;9.09;48.00;101321.33;1822831;78;21109;-77
2021/03/03 01:13:52;;;;;;;6.78;4.17;;;;;;;9.09;48.00;101315.98;1763726;80;21120;-77
2021/03/03 01:16:21;;;;;;;6.72;4.92;;;;;;;9.10;47.99;101326.19;1823036;78;21858;-76
2021/03/03 01:18:51;;;;;;;9.85;4.90;;;;;;;9.08;48.01;101320.98;1765860;81;21143;-76
2021/03/03 01:21:19;;;;;;;9.00;4.92;;;;;;;9.09;47.99;101324.50;1796698;79;21589;-80
2021/03/03 01:23:46;;;;;;;9.60;4.78;;;;;;;9.10;47.98;101325.70;1796598;79;21081;-77
2021/03/03 01:26:14;;;;;;;8.58;4.87;;;;;;;9.12;47.90;101325.06;1763305;80;21113;-78
2021/03/03 01:28:41;;;;;;;7.47;4.53;;;;;;;9.11;47.84;101327.39;1792704;79;21572;-78
2021/03/03 01:31:11;;;;;;;8.00;4.85;;;;;;;9.08;47.83;101326.78;1820670;78;21113;-79
2021/03/03 01:33:38;;;;;;;9.20;4.78;;;;;;;9.04;47.82;101336.06;1759299;81;21173;-78
2021/03/03 01:36:06;;;;;;;8.03;5.05;;;;;;;9.02;47.82;101337.99;1819269;78;21061;-77
2021/03/03 01:38:34;;;;;;;9.85;5.10;;;;;;;9.03;47.86;101334.34;1789246;79;21090;-79
2021/03/03 01:41:02;;;;;;;8.08;5.05;;;;;;;9.05;47.75;101332.41;1794544;79;21129;-76
2021/03/03 01:43:32;;;;;;;7.87;5.08;;;;;;;9.02;47.74;101332.65;1797022;79;21144;-80
2021/03/03 01:46:00;;;;;;;8.28;4.67;;;;;;;9.00;47.73;101338.13;1795719;79;21116;-79
2021/03/03 01:48:28;;;;;;;10.40;5.17;;;;;;;8.94;47.90;101333.27;1814441;78;21129;-76
2021/03/03 01:50:56;;;;;;;9.35;5.47;;;;;;;8.90;47.96;101339.84;1803501;78;21199;-76
2021/03/03 01:53:23;;;;;;;10.35;6.03;;;;;;;8.94;47.89;101338.61;1821159;78;21053;-77
2021/03/03 01:55:56;;;;;;;10.50;5.67;;;;;;;8.94;47.91;101337.28;1747847;81;21123;-79
2021/03/03 01:58:23;;;;;;;11.18;5.90;;;;;;;8.91;47.92;101345.56;1741956;81;21183;-76
2021/03/03 02:00:51;;;;;;;11.88;6.50;;;;;;;8.91;47.90;101348.73;1770351;80;21592;-77
2021/03/03 02:03:18;;;;;;;10.53;5.55;;;;;;;8.91;47.91;101349.58;1819010;78;21626;-77
2021/03/03 02:05:46;;;;;;;11.57;5.90;;;;;;;8.92;47.84;101357.95;1774768;80;21054;-79
2021/03/03 02:08:25;;;;;;;11.70;6.33;;;;;;;8.89;47.91;101359.52;1821135;78;21089;-76
2021/03/03 02:11:13;;;;;;;9.48;6.10;;;;;;;8.86;47.93;101360.64;1760559;80;21558;-77
2021/03/03 02:13:48;;;;;;;10.98;5.22;;;;;;;8.83;47.95;101360.03;1815120;78;21542;-76
2021/03/03 02:16:16;;;;;;;10.18;5.35;;;;;;;8.80;47.99;101358.45;1799581;79;21113;-79
2021/03/03 02:18:43;;;;;;;7.12;4.15;;;;;;;8.74;48.08;101364.78;1797259;79;21061;-77
2021/03/03 02:21:36;;;;;;;10.28;5.25;;;;;;;8.76;48.16;101364.16;1794447;79;21117;-76
2021/03/03 02:24:18;;;;;;;11.33;5.62;;;;;;;8.73;48.17;101375.96;1796665;79;21155;-81
2021/03/03 02:26:46;;;;;;;9.70;5.50;;;;;;;8.72;48.32;101375.61;1787484;79;21492;-77
2021/03/03 02:29:22;;;;;;;9.68;5.92;;;;;;;8.70;48.36;101382.03;1773558;80;21114;-78
2021/03/03 02:31:51;;;;;;;10.55;5.55;;;;;;;8.71;48.28;101379.72;1766644;80;21225;-76
2021/03/03 02:34:21;;;;;;;10.50;4.95;;;;;;;8.70;48.35;101391.38;1768977;80;21165;-77
2021/03/03 02:36:51;;;;;;;9.05;5.28;;;;;;;8.70;48.34;101387.38;1795809;79;21219;-75
2021/03/03 02:39:22;;;;;;;10.50;5.58;;;;;;;8.75;48.23;101393.19;1788087;79;21155;-75
2021/03/03 02:41:50;;;;;;;11.05;5.42;;;;;;;8.78;48.20;101392.46;1766034;79;21580;-76
2021/03/03 02:44:18;;;;;;;9.23;5.40;;;;;;;8.81;48.11;101395.35;1798813;79;21066;-79
2021/03/03 02:46:45;;;;;;;9.48;5.35;;;;;;;8.74;48.22;101399.51;1796539;79;21081;-78
2021/03/03 02:49:18;;;;;;;10.45;5.70;;;;;;;8.71;48.19;101405.94;1793860;79;21613;-81
2021/03/03 02:51:46;;;;;;;11.97;5.53;;;;;;;8.68;48.22;101400.86;1814739;78;21057;-77
2021/03/03 02:54:14;;;;;;;8.75;4.97;;;;;;;8.66;48.21;101409.46;1800454;79;21098;-77
2021/03/03 02:56:43;;;;;;;8.73;5.65;;;;;;;8.65;48.17;101405.10;1810775;79;21082;-79
2021/03/03 02:59:36;;;;;;;13.15;5.85;;;;;;;8.66;48.31;101412.63;1778887;80;21105;-79
2021/03/03 03:02:10;;;;;;;12.93;6.25;;;;;;;8.67;48.30;101416.98;1790410;80;21046;-79
2021/03/03 03:04:56;;;;;;;10.32;5.95;;;;;;;8.69;48.21;101422.58;1788827;79;21157;-78
2021/03/03 03:07:46;;;;;;;14.83;6.30;;;;;;;8.73;48.18;101425.86;1790141;80;21145;-78
2021/03/03 03:10:50;;;;;;;11.13;6.53;;;;;;;8.74;48.08;101422.22;1810732;79;21058;-79
2021/03/03 03:13:36;;;;;;;10.80;6.05;;;;;;;8.67;48.10;101425.00;1789265;80;21154;-81
2021/03/03 03:16:23;;;;;;;8.58;5.85;;;;;;;8.68;48.03;101423.56;1809511;79;21172;-77
2021/03/03 03:18:55;;;;;;;11.70;5.62;;;;;;;8.67;48.04;101426.33;1788499;80;21252;-78
2021/03/03 03:21:23;;;;;;;10.20;5.90;;;;;;;8.67;48.06;101429.00;1809226;79;21192;-77
2021/03/03 03:23:51;;;;;;;11.05;5.17;;;;;;;8.66;48.04;101432.66;1789056;80;21177;-77
2021/03/03 03:26:18;;;;;;;12.53;6.20;;;;;;;8.66;48.09;101435.33;1809531;79;21153;-80
2021/03/03 03:28:46;;;;;;;9.30;6.25;;;;;;;8.66;48.04;101441.52;1764374;80;21057;-81
2021/03/03 03:31:13;;;;;;;14.35;6.90;;;;;;;8.67;48.01;101442.36;1810665;79;21481;-76
2021/03/03 03:33:41;;;;;;;12.00;6.35;;;;;;;8.64;47.98;101436.30;1790416;80;21128;-78
2021/03/03 03:36:09;;;;;;;10.72;6.05;;;;;;;8.64;48.01;101441.64;1810808;79;21133;-78
2021/03/03 03:38:37;;;;;;;11.97;6.55;;;;;;;8.64;48.01;101450.14;1790521;80;21078;-78
2021/03/03 03:41:05;;;;;;;12.07;6.65;;;;;;;8.64;48.06;101449.66;1810675;79;21536;-80
2021/03/03 03:43:34;;;;;;;10.15;5.78;;;;;;;8.63;47.99;101457.31;1810855;79;21039;-78
2021/03/03 03:46:02;;;;;;;11.08;5.95;;;;;;;8.61;47.94;101453.05;1777105;80;21113;-79
2021/03/03 03:48:30;;;;;;;10.90;5.42;;;;;;;8.56;47.98;101455.23;1810002;79;21173;-80
2021/03/03 03:50:58;;;;;;;9.28;5.53;;;;;;;8.52;48.00;101455.95;1738360;80;21184;-78
2021/03/03 03:53:26;;;;;;;8.58;5.40;;;;;;;8.46;48.05;101459.11;1809050;79;21651;-76
2021/03/03 03:55:54;;;;;;;8.30;4.78;;;;;;;8.40;48.19;101454.23;1737765;80;21169;-79
2021/03/03 03:58:22;;;;;;;9.50;5.20;;;;;;;8.37;48.33;101455.34;1809675;79;21180;-78
2021/03/03 04:00:50;;;;;;;10.35;5.62;;;;;;;8.39;48.35;101457.39;1789379;80;21169;-78
2021/03/03 04:03:17;;;;;;;8.70;5.53;;;;;;;8.43;48.36;101463.84;1809391;79;21160;-77
2021/03/03 04:05:45;;;;;;;13.30;5.50;;;;;;;8.45;48.32;101454.75;1810823;79;21043;-77
2021/03/03 04:08:12;;;;;;;10.50;5.35;;;;;;;8.45;48.26;101458.76;1743948;80;21567;-78
2021/03/03 04:10:40;;;;;;;10.32;5.25;;;;;;;8.45;48.24;101461.88;1790148;80;21121;-80
2021/03/03 04:13:09;;;;;;;11.60;5.92;;;;;;;8.43;48.21;101457.16;1810430;79;21132;-79
2021/03/03 04:15:37;;;;;;;13.00;7.95;;;;;;;8.42;48.20;101456.80;1790627;80;21076;-78
2021/03/03 04:18:06;;;;;;;12.95;7.35;;;;;;;8.40;48.21;101470.25;1810764;79;21062;-77
2021/03/03 04:20:34;;;;;;;8.65;5.62;;;;;;;8.37;48.18;101462.02;1809964;79;21672;-78
2021/03/03 04:23:02;;;;;;;14.07;7.20;;;;;;;8.36;48.20;101466.12;1776104;80;21145;-80
2021/03/03 04:25:29;;;;;;;12.15;7.03;;;;;;;8.33;48.22;101466.34;1769862;80;21201;-78
2021/03/03 04:27:57;;;;;;;13.32;6.95;;;;;;;8.33;48.22;101469.02;1796483;79;21148;-78
2021/03/03 04:30:24;;;;;;;12.40;6.50;;;;;;;8.33;48.27;101465.86;1786143;78;21679;-75
2021/03/03 04:32:54;;;;;;;11.97;7.10;;;;;;;8.31;48.27;101471.81;1788286;79;21207;-77
2021/03/03 04:35:21;;;;;;;14.75;7.10;;;;;;;8.32;48.28;101473.51;1790886;79;21193;-76
2021/03/03 04:37:49;;;;;;;10.18;6.37;;;;;;;8.33;48.26;101478.36;1817320;78;21468;-79
2021/03/03 04:40:16;;;;;;;14.45;7.92;;;;;;;8.34;48.17;101481.38;1775723;80;21179;-77
2021/03/03 04:42:44;;;;;;;19.65;12.18;;;;;;;8.29;48.22;101491.57;1789526;79;21184;-79
2021/03/03 04:45:12;;;;;;;14.58;7.65;;;;;;;8.26;48.24;101495.80;1763096;81;21266;-79
2021/03/03 04:47:40;;;;;;;9.38;5.37;;;;;;;8.27;48.25;101497.53;1785225;79;21197;-77
2021/03/03 04:50:09;;;;;;;9.25;5.08;;;;;;;8.25;48.34;101502.11;1786801;80;21193;-78
2021/03/03 04:52:37;;;;;;;6.50;4.50;;;;;;;8.27;48.31;101507.72;1789517;80;21192;-77
2021/03/03 04:55:07;;;;;;;13.40;6.33;;;;;;;8.30;48.20;101506.61;1789285;80;21233;-78
2021/03/03 04:57:34;;;;;;;8.25;5.10;;;;;;;8.30;48.13;101511.95;1780602;78;21694;-78
2021/03/03 05:00:05;;;;;;;8.38;5.03;;;;;;;8.24;48.19;101513.28;1797860;78;21747;-76
2021/03/03 05:02:32;;;;;;;7.67;4.67;;;;;;;8.20;48.31;101516.30;1809436;78;21208;-78
2021/03/03 05:05:00;;;;;;;8.53;4.85;;;;;;;8.17;48.40;101517.38;1804787;78;21207;-77
2021/03/03 05:07:28;;;;;;;8.70;5.33;;;;;;;8.18;48.43;101520.92;1741029;80;21707;-76
2021/03/03 05:09:55;;;;;;;8.58;4.83;;;;;;;8.16;48.44;101518.34;1796048;78;21175;-77
2021/03/03 05:12:24;;;;;;;8.30;5.00;;;;;;;8.18;48.49;101520.43;1753409;81;21236;-77
2021/03/03 05:14:51;;;;;;;9.58;5.05;;;;;;;8.19;48.44;101534.63;1800618;79;21164;-77
2021/03/03 05:17:20;;;;;;;8.05;4.78;;;;;;;8.19;48.50;101535.47;1796271;79;21240;-76
2021/03/03 05:19:47;;;;;;;8.78;4.85;;;;;;;8.26;48.57;101541.17;1799143;79;21836;-76
2021/03/03 05:22:15;;;;;;;7.37;5.42;;;;;;;8.36;48.42;101539.53;1789364;78;21497;-79
2021/03/03 05:24:42;;;;;;;8.78;5.40;;;;;;;8.44;48.19;101545.63;1784211;79;21690;-76
2021/03/03 05:27:10;;;;;;;8.78;6.05;;;;;;;8.49;48.00;101542.11;1781560;79;21192;-77
2021/03/03 05:29:38;;;;;;;11.25;5.35;;;;;;;8.48;47.97;101545.28;1764101;79;21187;-76
2021/03/03 05:32:06;;;;;;;10.48;4.97;;;;;;;8.54;47.91;101547.49;1779446;79;21164;-77
2021/03/03 05:34:34;;;;;;;8.05;5.37;;;;;;;8.61;47.83;101544.70;1761432;79;21181;-77
2021/03/03 05:37:02;;;;;;;12.35;5.83;;;;;;;8.70;47.71;101540.95;1787100;78;21712;-79
2021/03/03 05:39:30;;;;;;;11.83;5.90;;;;;;;8.77;47.59;101541.70;1790954;79;21405;-78
2021/03/03 05:42:02;;;;;;;11.95;6.47;;;;;;;8.83;47.48;101547.89;1778928;79;21458;-78
2021/03/03 05:44:30;;;;;;;10.40;5.58;;;;;;;8.90;47.35;101549.58;1790638;78;21223;-77
2021/03/03 05:46:57;;;;;;;10.85;4.87;;;;;;;8.95;47.14;101550.55;1797097;78;21168;-77
2021/03/03 05:49:26;;;;;;;11.05;4.90;;;;;;;9.01;47.10;101554.95;1785236;79;21501;-76
2021/03/03 05:51:56;;;;;;;9.50;5.50;;;;;;;9.04;46.96;101554.71;1796455;79;21366;-76
2021/03/03 05:54:23;;;;;;;7.47;4.30;;;;;;;9.10;46.94;101557.38;1803815;78;21132;-75
2021/03/03 05:56:51;;;;;;;9.03;4.65;;;;;;;9.17;46.92;101563.92;1802559;79;21111;-76
2021/03/03 05:59:19;;;;;;;10.45;5.37;;;;;;;9.23;46.77;101566.61;1810208;78;21221;-78
2021/03/03 06:01:47;;;;;;;9.03;5.45;;;;;;;9.26;46.55;101566.34;1761429;81;21205;-77
2021/03/03 06:04:16;;;;;;;9.63;4.97;;;;;;;9.29;46.37;101570.13;1807984;78;21181;-78
2021/03/03 06:06:44;;;;;;;8.33;4.92;;;;;;;9.35;46.32;101574.97;1768360;79;21692;-77
2021/03/03 06:09:13;;;;;;;9.05;4.67;;;;;;;9.44;46.31;101574.23;1798160;77;21172;-77
2021/03/03 06:11:42;;;;;;;6.40;4.25;;;;;;;9.49;46.16;101580.05;1802624;79;21223;-79
2021/03/03 06:14:09;;;;;;;7.60;4.70;;;;;;;9.56;46.12;101583.95;1807089;78;21189;-77
2021/03/03 06:16:37;;;;;;;6.20;3.87;;;;;;;9.60;45.93;101585.89;1793986;77;21197;-78
2021/03/03 06:19:04;;;;;;;7.33;4.47;;;;;;;9.65;45.80;101584.54;1756287;78;21215;-77
2021/03/03 06:21:32;;;;;;;8.30;4.08;;;;;;;9.72;45.79;101585.36;1807462;78;21153;-75
2021/03/03 06:24:09;;;;;;;7.53;4.75;;;;;;;9.78;45.76;101576.37;1781687;78;21614;-76
2021/03/03 06:26:57;;;;;;;14.00;6.72;;;;;;;9.81;45.47;101580.60;1783563;78;21160;-76
2021/03/03 06:29:25;;;;;;;11.12;6.83;;;;;;;9.78;45.57;101579.53;1787858;78;21113;-76
2021/03/03 06:31:53;;;;;;;9.80;5.40;;;;;;;9.78;45.48;101580.38;1807591;77;21592;-76
2021/03/03 06:34:26;;;;;;;7.33;4.72;;;;;;;9.76;45.50;101580.13;1804482;78;21109;-75
2021/03/03 06:37:04;;;;;;;11.65;4.92;;;;;;;9.72;45.48;101588.04;1721225;81;21152;-76
2021/03/03 06:39:36;;;;;;;7.50;5.05;;;;;;;9.66;45.55;101584.89;1807400;78;22575;-76
2021/03/03 06:42:06;;;;;;;9.48;4.75;;;;;;;9.64;45.51;101586.02;1754954;78;21106;-76
2021/03/03 06:44:54;;;;;;;8.28;5.05;;;;;;;9.61;45.62;101593.78;1783425;78;21114;-75
2021/03/03 06:47:22;;;;;;;7.53;4.47;;;;;;;9.58;45.56;101591.38;1795996;78;21096;-76
2021/03/03 06:49:51;;;;;;;7.28;4.50;;;;;;;9.52;45.69;101590.52;1793045;79;21608;-76
2021/03/03 06:52:38;;;;;;;5.42;3.83;;;;;;;9.48;45.64;101590.39;1793473;77;21166;-75
2021/03/03 06:55:07;;;;;;;8.13;3.83;;;;;;;9.43;45.66;101593.93;1781942;78;21101;-76
2021/03/03 06:57:35;;;;;;;6.47;3.83;;;;;;;9.39;45.72;101589.30;1788571;78;21122;-76
2021/03/03 07:00:07;;;;;;;5.92;3.83;;;;;;;9.38;45.89;101590.29;1807847;78;21679;-77
2021/03/03 07:02:37;;;;;;;5.87;3.42;;;;;;;9.38;45.73;101597.46;1765845;79;21113;-77
2021/03/03 07:05:09;;;;;;;9.05;4.00;;;;;;;9.31;45.88;101591.77;1789222;78;21126;-76
2021/03/03 07:07:36;;;;;;;4.83;3.50;;;;;;;9.28;45.90;101597.34;1781864;77;21906;-78
2021/03/03 07:10:06;;;;;;;5.97;4.15;;;;;;;9.27;45.97;101606.34;1806052;77;21638;-77
2021/03/03 07:12:33;;;;;;;7.33;3.15;;;;;;;9.28;46.07;101611.20;1763533;79;21087;-77
2021/03/03 07:15:07;;;;;;;6.15;3.47;;;;;;;9.26;46.15;101604.62;1807961;78;21697;-76
2021/03/03 07:17:37;;;;;;;7.12;3.90;;;;;;;9.27;46.21;101601.00;1753326;79;21153;-75
2021/03/03 07:20:16;;;;;;;5.25;3.45;;;;;;;9.29;46.22;101611.08;1806693;78;21110;-77
2021/03/03 07:22:51;;;;;;;5.83;3.47;;;;;;;9.29;46.13;101603.05;1752257;79;21727;-77
2021/03/03 07:25:20;;;;;;;6.12;4.40;;;;;;;9.32;46.33;101605.98;1759910;78;21140;-75
2021/03/03 07:27:48;;;;;;;8.68;4.42;;;;;;;9.38;46.23;101609.00;1805032;78;21206;-74
2021/03/03 07:30:23;;;;;;;8.35;4.50;;;;;;;9.47;46.29;101611.44;1759653;79;21247;-76
2021/03/03 07:32:54;;;;;;;7.28;4.80;;;;;;;9.55;46.15;101615.69;1714052;80;21196;-75
2021/03/03 07:35:24;;;;;;;7.90;4.37;;;;;;;9.67;46.05;101617.84;1783265;78;21089;-75
2021/03/03 07:37:54;;;;;;;8.10;4.45;;;;;;;9.85;45.75;101620.86;1787234;78;21105;-75
2021/03/03 07:40:26;;;;;;;7.92;4.85;;;;;;;10.08;45.48;101619.84;1806366;78;21165;-76
2021/03/03 07:43:00;;;;;;;9.60;4.50;;;;;;;10.38;45.25;101615.61;1746339;79;22516;-76
2021/03/03 07:45:41;;;;;;;10.48;3.87;;;;;;;10.75;44.84;101621.38;1804355;77;21125;-75
2021/03/03 07:48:11;;;;;;;7.65;4.35;;;;;;;11.14;44.13;101617.11;1795598;78;21220;-76
2021/03/03 07:50:39;;;;;;;11.60;5.20;;;;;;;11.50;43.33;101622.91;1761058;79;21113;-77
2021/03/03 07:53:08;;;;;;;7.83;4.67;;;;;;;11.80;42.71;101622.49;1802203;78;21136;-76
2021/03/03 07:55:37;;;;;;;10.53;4.28;;;;;;;12.07;42.37;101628.09;1807223;77;21147;-76
2021/03/03 07:58:08;;;;;;;9.63;4.12;;;;;;;12.34;41.80;101627.91;1757094;79;21136;-76
2021/03/03 08:00:39;;;;;;;6.80;3.62;;;;;;;12.60;41.21;101630.37;1800926;78;21090;-76
2021/03/03 08:03:07;;;;;;;7.90;4.53;;;;;;;12.82;40.72;101635.95;1797692;78;21588;-77
2021/03/03 08:05:38;;;;;;;5.45;3.60;;;;;;;13.04;40.03;101638.81;1793152;78;21133;-76
2021/03/03 08:08:28;;;;;;;7.10;4.00;;;;;;;13.20;39.69;101640.88;1796714;77;21129;-75
2021/03/03 08:11:05;;;;;;;10.10;3.77;;;;;;;13.36;39.33;101642.99;1793168;78;21098;-74
2021/03/03 08:13:38;;;;;;;6.67;3.37;;;;;;;13.57;39.01;101648.97;1782827;78;26733;-76
2021/03/03 08:16:09;;;;;;;7.62;3.80;;;;;;;13.73;38.75;101644.81;1783110;78;21149;-74
2021/03/03 08:18:55;;;;;;;5.92;3.62;;;;;;;13.88;38.32;101640.60;1795023;77;21141;-74
2021/03/03 08:21:28;;;;;;;8.85;5.30;;;;;;;14.04;37.99;101646.19;1798342;78;21134;-75
2021/03/03 08:23:58;;;;;;;13.22;8.00;;;;;;;14.13;37.61;101652.01;1784603;78;21136;-75
2021/03/03 08:26:31;;;;;;;6.78;4.47;;;;;;;14.23;37.73;101655.13;1786775;78;21149;-75
2021/03/03 08:29:23;;;;;;;7.53;4.10;;;;;;;14.35;37.53;101656.11;1802254;78;21144;-75
2021/03/03 08:31:52;;;;;;;7.30;3.08;;;;;;;14.47;37.26;101658.06;1806213;78;21658;-75
2021/03/03 08:34:20;;;;;;;6.03;3.42;;;;;;;14.50;37.33;101652.41;1784086;78;21698;-75
2021/03/03 08:36:49;;;;;;;6.25;3.47;;;;;;;14.47;37.01;101656.20;1783054;79;21113;-74
2021/03/03 08:39:23;;;;;;;7.47;3.52;;;;;;;14.46;36.94;101658.56;1780725;78;21138;-76
2021/03/03 08:41:52;;;;;;;9.10;3.60;;;;;;;14.49;37.27;101656.58;1766740;80;21116;-75
2021/03/03 08:44:20;;;;;;;8.43;4.00;;;;;;;14.60;36.93;101657.20;1789875;78;21192;-76
2021/03/03 08:46:50;;;;;;;6.33;3.60;;;;;;;14.68;36.61;101659.13;1764485;79;21117;-74
2021/03/03 08:49:25;;;;;;;6.05;3.47;;;;;;;14.73;36.87;101665.41;1762800;79;21163;-75
2021/03/03 08:52:09;;;;;;;6.42;3.98;;;;;;;14.76;36.52;101655.63;1806940;78;21181;-76
2021/03/03 08:54:39;;;;;;;4.30;3.20;;;;;;;14.74;36.23;101652.27;1749193;79;21653;-74
2021/03/03 08:57:09;;;;;;;6.40;3.47;;;;;;;14.68;36.08;101653.73;1806921;77;21149;-75
2021/03/03 08:59:42;;;;;;;5.25;3.08;;;;;;;14.60;36.35;101657.20;1745309;79;21164;-75
2021/03/03 09:02:18;;;;;;;23.90;11.43;;;;;;;14.49;36.58;101660.63;1809365;78;21109;-75
2021/03/03 09:04:55;;;;;;;7.83;3.95;;;;;;;14.37;36.75;101670.27;1752555;79;21618;-75
2021/03/03 09:07:29;;;;;;;5.30;3.75;;;;;;;14.32;36.69;101663.65;1800806;78;21104;-75
2021/03/03 09:10:15;;;;;;;9.05;4.00;;;;;;;14.26;36.78;101667.81;1799464;78;21153;-75
2021/03/03 09:12:43;;;;;;;8.60;4.80;;;;;;;14.19;36.74;101666.71;1798262;78;21665;-76
2021/03/03 09:15:16;;;;;;;11.18;5.10;;;;;;;14.10;36.98;101665.77;1799847;78;21131;-76
2021/03/03 09:17:46;;;;;;;7.25;3.72;;;;;;;14.05;36.93;101670.77;1798571;78;21546;-74
2021/03/03 09:20:20;;;;;;;19.48;11.18;;;;;;;13.98;37.06;101665.62;1752255;79;21112;-76
2021/03/03 09:22:48;;;;;;;5.90;3.58;;;;;;;13.94;37.24;101671.84;1796351;77;21093;-74
2021/03/03 09:25:21;;;;;;;8.53;4.35;;;;;;;13.90;37.27;101666.91;1795763;77;21182;-76
2021/03/03 09:27:58;;;;;;;6.87;3.87;;;;;;;13.86;37.40;101671.73;1796882;77;21813;-75
2021/03/03 09:30:27;;;;;;;7.08;3.35;;;;;;;13.81;37.34;101671.84;1797361;78;21077;-77
2021/03/03 09:32:56;;;;;;;5.97;3.85;;;;;;;13.76;37.27;101673.61;1799683;77;21105;-76
2021/03/03 09:35:28;;;;;;;7.55;3.55;;;;;;;13.69;37.32;101676.06;1753396;79;21161;-76
2021/03/03 09:37:56;;;;;;;6.37;3.58;;;;;;;13.62;37.47;101679.48;1745855;79;21192;-76
2021/03/03 09:40:30;;;;;;;8.33;4.50;;;;;;;13.55;37.53;101679.24;1752042;80;21165;-75
2021/03/03 09:42:58;;;;;;;5.12;3.15;;;;;;;13.49;37.55;101680.31;1777770;78;21100;-74
2021/03/03 09:45:28;;;;;;;6.92;3.70;;;;;;;13.40;37.50;101680.23;1807278;78;21129;-75
2021/03/03 09:47:57;;;;;;;5.03;2.95;;;;;;;13.35;37.76;101681.64;1764348;79;21146;-76
2021/03/03 09:50:34;;;;;;;6.92;3.45;;;;;;;13.31;37.82;101684.30;1781675;78;22016;-75
2021/03/03 09:53:03;;;;;;;6.22;3.60;;;;;;;13.27;37.93;101678.85;1788262;78;21138;-77
2021/03/03 09:55:35;;;;;;;5.10;3.27;;;;;;;13.26;37.98;101688.73;1782201;78;21101;-74
2021/03/03 09:58:04;;;;;;;6.83;3.72;;;;;;;13.25;37.84;101676.79;1781882;78;21126;-75
2021/03/03 10:00:39;;;;;;;5.67;3.22;;;;;;;13.24;37.99;101679.13;1781093;78;21161;-79
2021/03/03 10:03:12;;;;;;;6.17;3.90;;;;;;;13.23;38.14;101679.63;1755895;78;21176;-77
2021/03/03 10:05:41;;;;;;;6.03;3.52;;;;;;;13.21;38.10;101682.41;1755599;79;21124;-76
2021/03/03 10:08:12;;;;;;;7.25;4.03;;;;;;;13.18;37.98;101674.66;1780908;78;21590;-75
2021/03/03 10:10:46;;;;;;;5.83;3.80;;;;;;;13.16;38.02;101682.01;1783631;78;21111;-78
2021/03/03 10:13:20;;;;;;;4.85;3.30;;;;;;;13.13;37.89;101678.28;1804977;78;21591;-79
2021/03/03 10:15:53;;;;;;;7.28;4.90;;;;;;;13.10;38.02;101671.84;1770741;78;21149;-76
2021/03/03 10:18:29;;;;;;;8.75;4.97;;;;;;;13.08;38.00;101672.49;1753280;78;21137;-78
2021/03/03 10:21:21;;;;;;;6.47;4.00;;;;;;;13.08;38.03;101664.42;1830029;76;22739;-74
2021/03/03 10:23:57;;;;;;;6.65;4.35;;;;;;;13.05;38.09;101670.58;1759973;77;21164;-76
2021/03/03 10:26:40;;;;;;;7.12;3.72;;;;;;;13.06;38.00;101668.23;1802405;77;21612;-76
2021/03/03 10:28:56;;;;;;;9.15;4.50;;;;;;;13.04;38.01;101667.05;1816242;77;21149;-76
2021/03/03 10:31:23;;;;;;;6.25;3.10;;;;;;;13.04;37.97;101658.13;1815635;77;21013;-78
2021/03/03 10:33:51;;;;;;;4.45;3.00;;;;;;;13.02;37.87;101658.76;1810494;77;21125;-76
2021/03/03 10:36:21;;;;;;;4.47;3.15;;;;;;;12.99;37.79;101656.34;1837973;75;21560;-76
2021/03/03 10:38:57;;;;;;;7.05;3.25;;;;;;;12.97;37.69;101653.81;1838222;75;21174;-78
2021/03/03 10:41:33;;;;;;;7.30;3.92;;;;;;;12.91;37.76;101661.13;1838128;75;21126;-75
2021/03/03 10:44:06;;;;;;;8.15;3.10;;;;;;;12.88;37.95;101664.09;1843103;75;21166;-76
2021/03/03 10:46:45;;;;;;;6.03;3.50;;;;;;;12.86;37.84;101667.44;1797598;75;21164;-76
2021/03/03 10:49:18;;;;;;;5.65;2.87;;;;;;;12.84;37.82;101660.83;1813304;77;21129;-75
2021/03/03 10:51:46;;;;;;;6.65;3.47;;;;;;;12.81;38.04;101662.95;1816566;76;21155;-76
2021/03/03 10:54:42;;;;;;;5.25;3.15;;;;;;;12.80;37.99;101663.95;1818298;77;21929;-76
2021/03/03 10:57:29;;;;;;;4.58;2.95;;;;;;;12.77;38.04;101660.23;1787285;77;21110;-77
2021/03/03 11:00:08;;;;;;;4.70;2.75;;;;;;;12.76;37.89;101659.84;1806536;77;21132;-77
2021/03/03 11:02:42;;;;;;;5.67;2.98;;;;;;;12.69;37.78;101656.90;1817527;76;21183;-75
2021/03/03 11:05:25;;;;;;;7.85;3.72;;;;;;;12.63;37.84;101658.83;1810302;78;21147;-76
2021/03/03 11:07:55;;;;;;;6.53;4.17;;;;;;;12.57;38.00;101663.40;1817384;77;21699;-75
2021/03/03 11:10:23;;;;;;;9.33;4.20;;;;;;;12.52;37.96;101661.64;1812872;78;21557;-78
2021/03/03 11:12:50;;;;;;;5.95;3.15;;;;;;;12.47;38.16;101652.66;1810446;78;21120;-76
2021/03/03 11:15:19;;;;;;;5.92;3.37;;;;;;;12.42;38.19;101654.42;1794185;77;21121;-77
2021/03/03 11:17:46;;;;;;;5.80;3.02;;;;;;;12.37;38.21;101655.84;1805211;77;21171;-75
2021/03/03 11:20:15;;;;;;;10.55;3.85;;;;;;;12.32;38.34;101646.86;1808441;77;21136;-78
2021/03/03 11:22:43;;;;;;;5.53;3.58;;;;;;;12.31;38.34;101649.66;1806766;77;21147;-76
2021/03/03 11:25:11;;;;;;;5.30;2.98;;;;;;;12.30;38.48;101650.66;1806471;77;21180;-75
2021/03/03 11:27:40;;;;;;;5.00;2.98;;;;;;;12.30;38.52;101646.63;1806055;77;21108;-76
2021/03/03 11:30:11;;;;;;;4.67;2.77;;;;;;;12.30;38.48;101638.58;1808815;77;21152;-77
2021/03/03 11:32:39;;;;;;;3.87;2.77;;;;;;;12.29;38.37;101639.07;1801358;77;21135;-77
2021/03/03 11:35:08;;;;;;;5.05;2.90;;;;;;;12.27;38.41;101637.03;1773538;79;21133;-76
2021/03/03 11:37:37;;;;;;;6.10;3.05;;;;;;;12.26;38.45;101635.31;1827322;76;21158;-79
2021/03/03 11:40:09;;;;;;;4.22;2.80;;;;;;;12.25;38.42;101634.12;1806680;77;21121;-77
2021/03/03 11:42:36;;;;;;;4.70;3.27;;;;;;;12.23;38.54;101630.73;1816696;77;21598;-78
2021/03/03 11:45:06;;;;;;;6.42;3.27;;;;;;;12.22;38.49;101624.52;1801890;77;21143;-75
2021/03/03 11:47:34;;;;;;;4.85;2.72;;;;;;;12.21;38.41;101630.02;1819543;77;21112;-76